Terminal Aerodrome Forecast
Issued by NWS

Home | Current Version | Previous Version | Text Only | Print | Product List | Glossary On
Versions: 1 2 3 4 5 6 7 8 9 10 11 12 13 14 15
000
FTUS45 KVEF 270500
TAFVGT
TAF
KVGT 270520Z 2706/2806 35012KT P6SM SKC
     FM271900 03007KT P6SM SCT250
     FM272100 11006KT P6SM BKN250
     FM280200 31005KT P6SM BKN250=

USA.gov is the U.S. government's official web portal to all federal, state and local government web resources and services.